Alexandria Bay, New York
Current Conditions -  °F | °C
As of 2:58 PM on Tuesday 25 Nov 2014 (Local Time) from KGTB Reporting Station
Overcast Overcast  
Wind Chill:   Ceiling: 5000
Heat Index:   Visibility: 10mi
Dew Point: -3°   Wind: 13mph
Humidity: 57%   Direction: 260°W
Pressure: 29.91"   Gusts: 23mph
Location:  44.34°N, 75.92°W
Report Text: KGTB 251958Z AUTO 26011G20KT 10SM BKN050 OVC060 06/M02 A2991 RMK AO2 PK WND 26030/28 SLP133 T00551025
Loading
Personal Weather Stations






























Interactive Weather Map New forecast layout! Learn more

10-Day Weather Forecast

Advertisements
Track Severe Weather on mobile